Crissiumal, Brazil
Current Conditions -  °F | °C
As of 5:00 PM on Thursday 30 Oct 2014 (Local Time) from SBCH Reporting Station
Light Rain Light Rain  
Wind Chill: 68°   Ceiling: 10000
Heat Index: 68°   Visibility: 5mi
Dew Point: 66°   Wind: 12mph
Humidity: 94%   Direction: 130°SE
Pressure: 29.85"   Gusts: NA
Location:  27.5°S, 54.1°W
Report Text: SBCH 301900Z 13010KT 8000 -RA FEW006 SCT040 OVC100 20/19 Q1011 RETS
Loading
Personal Weather Stations






























Interactive Weather Map
Tropical Storm Tracking
New forecast layout! Learn more

10-Day Weather Forecast

Advertisements
Track Severe Weather on mobile